createdAt,value
2023-05-10T00:01:26.978Z,62.12
2023-05-10T00:04:12.398Z,62.24
2023-05-10T00:06:58.182Z,61.51
2023-05-10T00:09:43.399Z,61.36
2023-05-10T00:12:28.810Z,61.26
2023-05-10T00:15:14.277Z,61.22
2023-05-10T00:17:59.702Z,61.57
2023-05-10T00:20:46.936Z,62.10
2023-05-10T00:23:32.339Z,62.00
2023-05-10T00:26:17.878Z,62.07
2023-05-10T00:29:08.920Z,62.28
2023-05-10T00:31:54.327Z,62.14
2023-05-10T00:34:39.923Z,62.81
2023-05-10T00:37:25.565Z,62.74
2023-05-10T00:40:11.823Z,62.46
2023-05-10T00:42:58.129Z,62.15
2023-05-10T00:45:44.372Z,62.33
2023-05-10T00:48:30.939Z,62.08
2023-05-10T00:51:17.392Z,62.17
2023-05-10T00:54:03.953Z,61.94
2023-05-10T00:56:50.341Z,61.99
2023-05-10T00:59:36.088Z,62.41
2023-05-10T01:02:21.496Z,62.94
2023-05-10T01:05:07.307Z,63.35
2023-05-10T01:07:52.770Z,63.40
2023-05-10T01:10:38.499Z,63.04
2023-05-10T01:13:32.625Z,62.92
2023-05-10T01:16:18.500Z,63.10
2023-05-10T01:19:09.901Z,63.50
2023-05-10T01:22:16.023Z,63.22
2023-05-10T01:25:20.038Z,63.18
2023-05-10T01:28:25.083Z,62.91
2023-05-10T01:31:25.638Z,62.54
2023-05-10T01:34:20.528Z,62.23
2023-05-10T01:37:13.086Z,62.20
2023-05-10T01:40:09.223Z,61.88
2023-05-10T01:43:00.933Z,61.21
2023-05-10T01:46:01.720Z,61.59
2023-05-10T01:48:55.044Z,61.91
2023-05-10T01:51:48.107Z,61.82
2023-05-10T01:54:34.929Z,61.75
2023-05-10T01:57:23.093Z,61.90
2023-05-10T02:00:09.969Z,61.94
2023-05-10T02:03:08.707Z,61.91
2023-05-10T02:05:58.381Z,61.79
2023-05-10T02:08:46.948Z,62.08
2023-05-10T02:11:33.255Z,62.20
2023-05-10T02:14:19.904Z,62.09
2023-05-10T02:17:07.657Z,62.14
2023-05-10T02:19:55.296Z,62.24
2023-05-10T02:22:41.975Z,62.36
2023-05-10T02:25:29.550Z,62.33
2023-05-10T02:28:16.413Z,62.31
2023-05-10T02:31:02.273Z,62.51
2023-05-10T02:33:49.125Z,62.45
2023-05-10T02:36:38.641Z,62.24
2023-05-10T02:39:25.720Z,62.07
2023-05-10T02:42:17.882Z,62.15
2023-05-10T02:45:09.058Z,61.94
2023-05-10T02:47:55.272Z,62.32
2023-05-10T02:50:44.906Z,62.49
2023-05-10T02:53:34.439Z,62.67
2023-05-10T02:56:34.192Z,62.57
2023-05-10T02:59:19.693Z,62.32
2023-05-10T03:02:05.589Z,62.28
2023-05-10T03:04:51.300Z,61.93
2023-05-10T03:07:36.787Z,61.91
2023-05-10T03:10:28.620Z,62.35
2023-05-10T03:13:18.791Z,62.69
2023-05-10T03:16:13.195Z,62.87
2023-05-10T03:19:05.611Z,63.03
2023-05-10T03:21:53.847Z,63.19
2023-05-10T03:24:43.216Z,62.75
2023-05-10T03:27:30.742Z,62.87
2023-05-10T03:30:18.064Z,63.11
2023-05-10T03:33:10.005Z,63.15
2023-05-10T03:35:59.066Z,63.62
2023-05-10T03:38:46.324Z,64.20
2023-05-10T03:41:31.959Z,63.80
2023-05-10T03:44:17.422Z,64.14
2023-05-10T03:47:03.457Z,64.31
2023-05-10T03:49:49.282Z,64.49
2023-05-10T03:52:34.639Z,64.86
2023-05-10T03:55:20.303Z,64.83
2023-05-10T03:58:05.535Z,64.98
2023-05-10T04:00:52.835Z,65.87
2023-05-10T04:03:39.417Z,65.93
2023-05-10T04:06:24.893Z,66.03
2023-05-10T04:09:10.215Z,66.69
2023-05-10T04:11:55.526Z,66.85
2023-05-10T04:14:40.905Z,66.86
2023-05-10T04:17:27.217Z,67.23
2023-05-10T04:20:14.196Z,66.50
2023-05-10T04:22:59.957Z,66.17
2023-05-10T04:25:45.203Z,66.22
2023-05-10T04:28:30.627Z,66.36
2023-05-10T04:31:15.951Z,66.32
2023-05-10T04:34:01.263Z,66.30
2023-05-10T04:36:46.690Z,66.06
2023-05-10T04:39:32.122Z,66.02
2023-05-10T04:42:17.482Z,66.26
2023-05-10T04:45:03.015Z,66.55
2023-05-10T04:47:48.911Z,66.99
2023-05-10T04:50:34.695Z,65.76
2023-05-10T04:53:20.168Z,65.10
2023-05-10T04:56:06.757Z,63.96
2023-05-10T04:58:52.145Z,63.69
2023-05-10T05:01:37.529Z,61.76
2023-05-10T05:04:24.471Z,60.66
2023-05-10T05:07:09.974Z,59.62
2023-05-10T05:09:55.262Z,58.60
2023-05-10T05:12:40.773Z,57.61
2023-05-10T05:15:26.032Z,55.45
2023-05-10T05:18:11.683Z,54.59
2023-05-10T05:20:57.441Z,53.29
2023-05-10T05:23:42.788Z,51.76
2023-05-10T05:26:28.556Z,49.48
2023-05-10T05:29:14.236Z,48.96
2023-05-10T05:31:59.829Z,48.11
2023-05-10T05:34:48.559Z,46.58
2023-05-10T05:37:34.004Z,46.35
2023-05-10T05:40:19.422Z,47.40
2023-05-10T05:43:04.775Z,47.48
2023-05-10T05:45:50.738Z,47.31
2023-05-10T05:48:36.113Z,46.31
2023-05-10T05:51:21.512Z,45.15
2023-05-10T05:54:07.392Z,43.97
2023-05-10T05:56:55.983Z,42.50
2023-05-10T05:59:44.834Z,40.84
2023-05-10T06:02:30.349Z,38.75
2023-05-10T06:05:17.153Z,38.11
2023-05-10T06:08:03.024Z,38.36
2023-05-10T06:10:48.457Z,37.95
2023-05-10T06:13:34.346Z,37.60
2023-05-10T06:16:19.894Z,37.36
2023-05-10T06:19:05.269Z,36.94
2023-05-10T06:21:53.095Z,37.19
2023-05-10T06:24:39.436Z,37.07
2023-05-10T06:27:25.470Z,37.10
2023-05-10T06:30:13.668Z,37.16
2023-05-10T06:32:59.352Z,37.62
2023-05-10T06:35:44.887Z,36.81
2023-05-10T06:38:30.698Z,37.80
2023-05-10T06:41:16.063Z,37.81
2023-05-10T06:44:01.340Z,37.85
2023-05-10T06:46:47.346Z,36.01
2023-05-10T06:49:33.157Z,37.13
2023-05-10T06:52:18.474Z,36.97
2023-05-10T06:55:05.268Z,37.46
2023-05-10T06:57:51.569Z,35.98
2023-05-10T07:00:41.724Z,35.93
2023-05-10T07:03:27.419Z,35.68
2023-05-10T07:06:29.335Z,35.04
2023-05-10T07:09:18.556Z,35.11
2023-05-10T07:12:04.674Z,34.99
2023-05-10T07:14:50.885Z,34.29
2023-05-10T07:17:36.436Z,34.44
2023-05-10T07:20:22.471Z,34.44
2023-05-10T07:23:07.938Z,34.37
2023-05-10T07:25:53.433Z,33.38
2023-05-10T07:28:39.129Z,33.32
2023-05-10T07:31:24.614Z,33.90
2023-05-10T07:34:10.336Z,32.89
2023-05-10T07:36:55.830Z,32.67
2023-05-10T07:39:41.194Z,31.01
2023-05-10T07:42:26.638Z,32.98
2023-05-10T07:45:11.989Z,32.83
2023-05-10T07:47:57.574Z,31.71
2023-05-10T07:50:43.544Z,31.84
2023-05-10T07:53:29.385Z,31.14
2023-05-10T07:56:27.536Z,31.61
2023-05-10T07:59:19.394Z,30.17
2023-05-10T08:02:04.921Z,30.31
2023-05-10T08:04:50.539Z,30.54
2023-05-10T08:07:36.105Z,30.81
2023-05-10T08:10:21.922Z,30.69
2023-05-10T08:13:07.868Z,30.50
2023-05-10T08:15:54.242Z,30.55
2023-05-10T08:18:40.840Z,30.03
2023-05-10T08:21:27.176Z,29.81
2023-05-10T08:24:12.563Z,30.75
2023-05-10T08:26:58.306Z,29.74
2023-05-10T08:29:50.232Z,29.39
2023-05-10T08:32:36.350Z,29.18
2023-05-10T08:35:22.043Z,29.41
2023-05-10T08:38:07.425Z,28.79
2023-05-10T08:40:57.686Z,28.56
2023-05-10T08:43:47.254Z,28.97
2023-05-10T08:46:36.435Z,28.92
2023-05-10T08:49:22.774Z,29.93
2023-05-10T08:52:09.309Z,29.99
2023-05-10T08:54:55.252Z,28.51
2023-05-10T08:57:40.871Z,29.22
2023-05-10T09:00:27.160Z,29.12
2023-05-10T09:03:13.726Z,28.52
2023-05-10T09:05:59.445Z,28.55
2023-05-10T09:08:45.821Z,27.99
2023-05-10T09:11:33.084Z,27.85
2023-05-10T09:14:20.633Z,28.59
2023-05-10T09:17:06.327Z,28.65
2023-05-10T09:19:57.861Z,27.70
2023-05-10T09:22:43.359Z,27.60
2023-05-10T09:25:28.758Z,28.57
2023-05-10T09:28:14.371Z,27.93
2023-05-10T09:31:00.194Z,29.16
2023-05-10T09:33:50.289Z,28.49
2023-05-10T09:36:35.579Z,27.58
2023-05-10T09:39:21.351Z,27.29
2023-05-10T09:42:08.842Z,26.98
2023-05-10T09:44:54.479Z,26.89
2023-05-10T09:47:40.383Z,27.24
2023-05-10T09:50:26.612Z,27.88
2023-05-10T09:53:16.593Z,26.82
2023-05-10T09:56:02.210Z,27.33
2023-05-10T09:59:02.671Z,28.00
2023-05-10T10:01:52.350Z,27.25
2023-05-10T10:04:41.824Z,27.79
2023-05-10T10:07:28.671Z,27.57
2023-05-10T10:10:14.284Z,27.79
2023-05-10T10:13:00.713Z,27.15
2023-05-10T10:15:47.894Z,27.36
2023-05-10T10:18:34.270Z,27.61
2023-05-10T10:21:20.295Z,27.62
2023-05-10T10:24:08.651Z,28.48
2023-05-10T10:27:12.656Z,28.30
2023-05-10T10:30:28.248Z,27.93
2023-05-10T10:33:32.315Z,27.15
2023-05-10T10:36:18.562Z,26.45
2023-05-10T10:39:11.540Z,27.71
2023-05-10T10:41:58.528Z,27.37
2023-05-10T10:44:45.774Z,26.72
2023-05-10T10:47:34.137Z,26.89
2023-05-10T10:50:19.858Z,27.08
2023-05-10T10:53:12.194Z,26.97
2023-05-10T10:56:16.028Z,27.84
2023-05-10T10:59:02.134Z,27.06
2023-05-10T11:01:53.031Z,27.20
2023-05-10T11:04:44.416Z,27.62
2023-05-10T11:07:29.801Z,27.30
2023-05-10T11:10:21.496Z,27.48
2023-05-10T11:13:09.117Z,28.07
2023-05-10T11:15:54.973Z,27.67
2023-05-10T11:18:41.237Z,27.29
2023-05-10T11:21:27.148Z,27.66
2023-05-10T11:24:21.192Z,27.07
2023-05-10T11:27:07.072Z,27.07
2023-05-10T11:29:53.552Z,26.64
2023-05-10T11:32:41.463Z,26.54
2023-05-10T11:35:28.886Z,26.67
2023-05-10T11:38:15.116Z,27.88
2023-05-10T11:41:00.668Z,28.20
2023-05-10T11:43:51.848Z,28.05
2023-05-10T11:46:37.705Z,27.50
2023-05-10T11:49:25.593Z,27.21
2023-05-10T11:52:12.426Z,27.11
2023-05-10T11:54:58.716Z,28.69
2023-05-10T11:57:46.867Z,27.98
2023-05-10T12:00:33.046Z,26.50
2023-05-10T12:03:18.893Z,27.50
2023-05-10T12:06:04.760Z,27.35
2023-05-10T12:08:54.900Z,27.83
2023-05-10T12:11:44.179Z,27.48
2023-05-10T12:14:34.289Z,27.33
2023-05-10T12:17:19.803Z,27.74
2023-05-10T12:20:19.730Z,27.50
2023-05-10T12:23:06.517Z,27.70
2023-05-10T12:25:52.534Z,27.97
2023-05-10T12:28:40.421Z,28.33
2023-05-10T12:31:26.051Z,27.97
2023-05-10T12:34:11.723Z,28.21
2023-05-10T12:36:57.211Z,28.07
2023-05-10T12:39:44.401Z,28.14
2023-05-10T12:42:30.400Z,28.56
2023-05-10T12:45:18.713Z,27.88
2023-05-10T12:48:10.193Z,27.14
2023-05-10T12:51:03.077Z,26.92
2023-05-10T12:53:49.829Z,26.64
2023-05-10T12:56:35.880Z,26.07
2023-05-10T12:59:24.014Z,26.38
2023-05-10T13:02:12.139Z,26.81
2023-05-10T13:04:58.596Z,26.62
2023-05-10T13:07:44.873Z,27.27
2023-05-10T13:10:31.913Z,27.44
2023-05-10T13:13:17.488Z,28.11
2023-05-10T13:16:02.996Z,26.94
2023-05-10T13:18:48.350Z,27.08
2023-05-10T13:21:33.732Z,26.68
2023-05-10T13:24:18.959Z,26.38
2023-05-10T13:27:04.220Z,27.29
2023-05-10T13:29:49.757Z,26.95
2023-05-10T13:32:35.643Z,27.12
2023-05-10T13:35:21.097Z,27.74
2023-05-10T13:38:09.155Z,27.89
2023-05-10T13:40:54.499Z,27.10
2023-05-10T13:43:40.694Z,27.17
2023-05-10T13:46:26.580Z,26.85
2023-05-10T13:49:12.069Z,26.42
2023-05-10T13:51:57.896Z,26.21
2023-05-10T13:54:43.692Z,26.04
2023-05-10T13:57:29.960Z,26.72
2023-05-10T14:00:17.413Z,26.81
2023-05-10T14:03:03.740Z,26.35
2023-05-10T14:05:48.963Z,26.71
2023-05-10T14:08:36.176Z,26.14
2023-05-10T14:11:23.925Z,26.18
2023-05-10T14:14:10.732Z,26.63
2023-05-10T14:16:56.512Z,27.25
2023-05-10T14:19:41.760Z,27.61
2023-05-10T14:22:27.159Z,27.38
2023-05-10T14:25:13.674Z,27.21
2023-05-10T14:27:58.923Z,27.54
2023-05-10T14:30:44.382Z,27.51
2023-05-10T14:33:29.691Z,27.04
2023-05-10T14:36:15.441Z,27.38
2023-05-10T14:39:00.929Z,27.39
2023-05-10T14:41:46.712Z,28.02
2023-05-10T14:44:32.663Z,27.92
2023-05-10T14:47:17.978Z,27.47
2023-05-10T14:50:03.516Z,28.05
2023-05-10T14:52:49.068Z,27.49
2023-05-10T14:55:35.703Z,26.62
2023-05-10T14:58:21.292Z,27.53
2023-05-10T15:01:06.691Z,27.01
2023-05-10T15:03:52.558Z,27.62
2023-05-10T15:06:39.277Z,27.59
2023-05-10T15:09:24.873Z,27.73
2023-05-10T15:12:10.154Z,28.20
2023-05-10T15:14:55.641Z,28.08
2023-05-10T15:17:41.049Z,27.94
2023-05-10T15:20:26.858Z,28.16
2023-05-10T15:23:12.468Z,27.90
2023-05-10T15:25:58.166Z,28.44
2023-05-10T15:28:43.952Z,27.49
2023-05-10T15:31:29.535Z,27.66
2023-05-10T15:34:15.191Z,27.35
2023-05-10T15:37:00.791Z,27.30
2023-05-10T15:39:46.118Z,26.83
2023-05-10T15:42:32.865Z,27.55
2023-05-10T15:45:19.890Z,27.20
2023-05-10T15:48:05.947Z,26.85
2023-05-10T15:50:51.040Z,26.92
2023-05-10T15:53:36.323Z,27.46
2023-05-10T15:56:22.436Z,27.33
2023-05-10T15:59:08.728Z,26.99
2023-05-10T16:01:54.076Z,27.61
2023-05-10T16:04:39.383Z,27.44
2023-05-10T16:07:24.930Z,27.30
2023-05-10T16:10:11.585Z,27.97
2023-05-10T16:12:57.191Z,27.75
2023-05-10T16:15:43.167Z,28.35
2023-05-10T16:18:29.112Z,28.40
2023-05-10T16:21:14.974Z,27.80
2023-05-10T16:24:01.091Z,27.77
2023-05-10T16:26:47.129Z,27.92
2023-05-10T16:29:32.748Z,28.29
2023-05-10T16:32:18.924Z,28.10
2023-05-10T16:35:04.766Z,28.12
2023-05-10T16:37:51.547Z,28.22
2023-05-10T16:40:37.035Z,28.56
2023-05-10T16:43:24.048Z,28.48
2023-05-10T16:46:12.147Z,28.71
2023-05-10T16:48:59.864Z,28.97
2023-05-10T16:51:45.621Z,29.01
2023-05-10T16:54:31.233Z,29.07
2023-05-10T16:57:16.653Z,29.18
2023-05-10T17:00:02.293Z,29.01
2023-05-10T17:02:48.562Z,29.29
2023-05-10T17:05:34.374Z,29.67
2023-05-10T17:08:19.954Z,29.71
2023-05-10T17:11:05.494Z,30.03
2023-05-10T17:13:52.372Z,30.26
2023-05-10T17:16:38.214Z,30.60
2023-05-10T17:19:26.146Z,30.56
2023-05-10T17:22:13.492Z,30.99
2023-05-10T17:24:58.947Z,35.26
2023-05-10T17:27:45.197Z,31.84
2023-05-10T17:30:32.659Z,31.55
2023-05-10T17:33:18.114Z,31.68
2023-05-10T17:36:03.842Z,31.65
2023-05-10T17:38:49.567Z,31.87
2023-05-10T17:41:35.162Z,31.94
2023-05-10T17:44:20.555Z,32.03
2023-05-10T17:47:06.448Z,32.18
2023-05-10T17:49:51.830Z,32.27
2023-05-10T17:52:37.526Z,33.39
2023-05-10T17:55:23.382Z,36.00
2023-05-10T17:58:11.572Z,33.04
2023-05-10T18:01:00.140Z,33.02
2023-05-10T18:03:47.629Z,32.82
2023-05-10T18:06:37.918Z,33.01
2023-05-10T18:09:23.703Z,33.97
2023-05-10T18:12:09.082Z,33.24
2023-05-10T18:14:54.743Z,32.91
2023-05-10T18:17:40.071Z,32.69
2023-05-10T18:20:25.907Z,32.53
2023-05-10T18:23:11.241Z,32.40
2023-05-10T18:25:57.586Z,32.38
2023-05-10T18:28:42.899Z,32.62
2023-05-10T18:31:28.094Z,32.51
2023-05-10T18:34:13.656Z,32.26
2023-05-10T18:36:59.757Z,32.74
2023-05-10T18:39:45.218Z,33.07
2023-05-10T18:42:30.989Z,33.42
2023-05-10T18:45:16.845Z,33.39
2023-05-10T18:48:02.972Z,33.34
2023-05-10T18:50:48.818Z,33.43
2023-05-10T18:53:35.266Z,33.45
2023-05-10T18:56:22.111Z,33.66
2023-05-10T18:59:07.775Z,33.93
2023-05-10T19:01:54.938Z,33.82
2023-05-10T19:04:41.737Z,33.94
2023-05-10T19:07:27.744Z,34.02
2023-05-10T19:10:13.912Z,33.67
2023-05-10T19:12:59.570Z,34.07
2023-05-10T19:15:45.441Z,34.02
2023-05-10T19:18:33.769Z,34.29
2023-05-10T19:21:19.760Z,34.17
2023-05-10T19:24:05.740Z,33.93
2023-05-10T19:26:52.061Z,34.36
2023-05-10T19:29:37.472Z,34.81
2023-05-10T19:32:24.601Z,35.71
2023-05-10T19:35:13.209Z,35.92
2023-05-10T19:37:59.224Z,37.70
2023-05-10T19:40:45.326Z,39.47
2023-05-10T19:43:37.967Z,41.08
2023-05-10T19:46:23.574Z,42.01
2023-05-10T19:49:08.945Z,42.56
2023-05-10T19:51:54.360Z,43.18
2023-05-10T19:54:39.747Z,43.48
2023-05-10T19:57:25.098Z,44.38
2023-05-10T20:00:11.269Z,45.43
2023-05-10T20:02:57.389Z,45.22
2023-05-10T20:05:42.712Z,45.62
2023-05-10T20:08:29.238Z,45.92
2023-05-10T20:11:14.575Z,45.96
2023-05-10T20:14:00.273Z,46.56
2023-05-10T20:16:46.753Z,46.22
2023-05-10T20:19:32.330Z,46.52
2023-05-10T20:22:18.298Z,47.53
2023-05-10T20:25:03.767Z,48.66
2023-05-10T20:27:50.955Z,48.58
2023-05-10T20:30:36.727Z,48.90
2023-05-10T20:33:22.623Z,48.84
2023-05-10T20:36:09.619Z,48.42
2023-05-10T20:38:55.150Z,48.45
2023-05-10T20:41:40.465Z,49.09
2023-05-10T20:44:26.557Z,49.26
2023-05-10T20:47:12.020Z,49.90
2023-05-10T20:49:57.405Z,49.79
2023-05-10T20:52:42.884Z,50.06
2023-05-10T20:55:28.421Z,50.13
2023-05-10T20:58:14.044Z,49.96
2023-05-10T21:01:01.248Z,50.59
2023-05-10T21:03:46.961Z,50.52
2023-05-10T21:06:32.898Z,49.91
2023-05-10T21:09:18.661Z,50.07
2023-05-10T21:12:04.488Z,50.66
2023-05-10T21:14:50.285Z,50.49
2023-05-10T21:17:35.724Z,50.47
2023-05-10T21:20:21.245Z,50.52
2023-05-10T21:23:06.440Z,51.11
2023-05-10T21:25:52.385Z,51.46
2023-05-10T21:28:40.080Z,51.98
2023-05-10T21:31:25.837Z,52.16
2023-05-10T21:34:11.215Z,51.57
2023-05-10T21:36:56.741Z,51.57
2023-05-10T21:39:42.110Z,51.36
2023-05-10T21:42:27.497Z,51.70
2023-05-10T21:45:12.989Z,51.87
2023-05-10T21:48:01.715Z,51.64
2023-05-10T21:50:48.164Z,51.77
2023-05-10T21:53:33.900Z,51.68
2023-05-10T21:56:19.268Z,51.76
2023-05-10T21:59:04.994Z,52.04
2023-05-10T22:01:50.538Z,52.37
2023-05-10T22:04:35.846Z,52.28
2023-05-10T22:07:21.620Z,52.23
2023-05-10T22:10:09.010Z,52.06
2023-05-10T22:12:54.783Z,52.06
2023-05-10T22:15:39.992Z,52.16
2023-05-10T22:18:25.679Z,52.93
2023-05-10T22:21:10.985Z,52.85
2023-05-10T22:23:56.362Z,53.73
2023-05-10T22:26:41.828Z,53.66
2023-05-10T22:29:27.482Z,54.35
2023-05-10T22:32:13.057Z,54.82
2023-05-10T22:34:58.786Z,54.93
2023-05-10T22:37:44.231Z,55.35
2023-05-10T22:40:29.867Z,55.24
2023-05-10T22:43:17.551Z,55.44
2023-05-10T22:46:03.488Z,56.13
2023-05-10T22:48:48.801Z,56.89
2023-05-10T22:51:34.693Z,57.01
2023-05-10T22:54:20.108Z,56.74
2023-05-10T22:57:06.053Z,57.07
2023-05-10T22:59:52.666Z,57.15
2023-05-10T23:02:38.593Z,57.18
2023-05-10T23:05:24.770Z,57.11
2023-05-10T23:08:12.546Z,57.63
2023-05-10T23:10:58.435Z,57.66
2023-05-10T23:13:43.812Z,57.67
2023-05-10T23:16:29.098Z,58.03
2023-05-10T23:19:14.817Z,58.00
2023-05-10T23:22:01.554Z,57.28
2023-05-10T23:24:47.412Z,57.33
2023-05-10T23:27:33.746Z,57.30
2023-05-10T23:30:19.389Z,57.12
2023-05-10T23:33:05.160Z,56.78
2023-05-10T23:35:50.505Z,57.24
2023-05-10T23:38:37.770Z,57.66
2023-05-10T23:41:24.810Z,58.30
2023-05-10T23:44:10.892Z,58.78
2023-05-10T23:46:56.490Z,58.89
2023-05-10T23:49:44.545Z,58.83
2023-05-10T23:52:30.146Z,58.54
2023-05-10T23:55:16.334Z,58.58
2023-05-10T23:58:01.385Z,58.46
